sensor_id;sensor_type;location;lat;lon;timestamp;P1;durP1;ratioP1;P2;durP2;ratioP2
70078;SDS011;57451;52.496;13.456;2023-06-24T00:00:43;12.50;;;8.68;;
70078;SDS011;57451;52.496;13.456;2023-06-24T00:03:11;17.38;;;8.15;;
70078;SDS011;57451;52.496;13.456;2023-06-24T00:05:43;15.32;;;8.02;;
70078;SDS011;57451;52.496;13.456;2023-06-24T00:08:16;12.77;;;8.27;;
70078;SDS011;57451;52.496;13.456;2023-06-24T00:10:46;11.75;;;8.25;;
70078;SDS011;57451;52.496;13.456;2023-06-24T00:13:13;12.77;;;8.40;;
70078;SDS011;57451;52.496;13.456;2023-06-24T00:15:41;13.55;;;8.77;;
70078;SDS011;57451;52.496;13.456;2023-06-24T00:18:11;13.15;;;8.20;;
70078;SDS011;57451;52.496;13.456;2023-06-24T00:20:38;13.33;;;8.47;;
70078;SDS011;57451;52.496;13.456;2023-06-24T00:23:08;11.60;;;8.02;;
70078;SDS011;57451;52.496;13.456;2023-06-24T00:25:36;13.80;;;8.98;;
70078;SDS011;57451;52.496;13.456;2023-06-24T00:28:03;13.32;;;8.82;;
70078;SDS011;57451;52.496;13.456;2023-06-24T00:30:30;12.77;;;9.07;;
70078;SDS011;57451;52.496;13.456;2023-06-24T00:32:58;13.03;;;8.47;;
70078;SDS011;57451;52.496;13.456;2023-06-24T00:35:27;13.02;;;8.73;;
70078;SDS011;57451;52.496;13.456;2023-06-24T00:37:54;13.85;;;9.63;;
70078;SDS011;57451;52.496;13.456;2023-06-24T00:40:26;14.27;;;9.15;;
70078;SDS011;57451;52.496;13.456;2023-06-24T00:42:53;14.15;;;9.13;;
70078;SDS011;57451;52.496;13.456;2023-06-24T00:45:21;13.77;;;9.27;;
70078;SDS011;57451;52.496;13.456;2023-06-24T00:47:49;14.75;;;9.80;;
70078;SDS011;57451;52.496;13.456;2023-06-24T00:50:17;16.63;;;9.98;;
70078;SDS011;57451;52.496;13.456;2023-06-24T00:52:46;15.40;;;10.20;;
70078;SDS011;57451;52.496;13.456;2023-06-24T00:55:14;13.40;;;9.95;;
70078;SDS011;57451;52.496;13.456;2023-06-24T00:57:43;15.77;;;9.80;;
70078;SDS011;57451;52.496;13.456;2023-06-24T01:00:13;18.67;;;11.05;;
70078;SDS011;57451;52.496;13.456;2023-06-24T01:02:44;17.63;;;11.75;;
70078;SDS011;57451;52.496;13.456;2023-06-24T01:05:14;17.88;;;11.35;;
70078;SDS011;57451;52.496;13.456;2023-06-24T01:07:42;18.60;;;12.45;;
70078;SDS011;57451;52.496;13.456;2023-06-24T01:10:13;18.33;;;11.90;;
70078;SDS011;57451;52.496;13.456;2023-06-24T01:12:41;18.15;;;11.52;;
70078;SDS011;57451;52.496;13.456;2023-06-24T01:15:11;19.83;;;11.85;;
70078;SDS011;57451;52.496;13.456;2023-06-24T01:17:39;19.73;;;12.85;;
70078;SDS011;57451;52.496;13.456;2023-06-24T01:20:14;19.92;;;12.68;;
70078;SDS011;57451;52.496;13.456;2023-06-24T01:22:53;17.87;;;11.83;;
70078;SDS011;57451;52.496;13.456;2023-06-24T01:25:41;18.75;;;11.90;;
70078;SDS011;57451;52.496;13.456;2023-06-24T01:28:25;17.88;;;12.18;;
70078;SDS011;57451;52.496;13.456;2023-06-24T01:31:23;18.13;;;11.73;;
70078;SDS011;57451;52.496;13.456;2023-06-24T01:34:01;18.42;;;12.85;;
70078;SDS011;57451;52.496;13.456;2023-06-24T01:36:33;16.97;;;12.47;;
70078;SDS011;57451;52.496;13.456;2023-06-24T01:39:05;17.63;;;12.15;;
70078;SDS011;57451;52.496;13.456;2023-06-24T01:41:36;17.55;;;11.75;;
70078;SDS011;57451;52.496;13.456;2023-06-24T01:44:08;18.48;;;12.38;;
70078;SDS011;57451;52.496;13.456;2023-06-24T01:46:42;19.00;;;11.35;;
70078;SDS011;57451;52.496;13.456;2023-06-24T01:49:13;18.77;;;11.80;;
70078;SDS011;57451;52.496;13.456;2023-06-24T01:51:42;16.85;;;11.43;;
70078;SDS011;57451;52.496;13.456;2023-06-24T01:54:15;17.80;;;11.80;;
70078;SDS011;57451;52.496;13.456;2023-06-24T01:56:49;18.30;;;11.43;;
70078;SDS011;57451;52.496;13.456;2023-06-24T01:59:19;16.45;;;11.10;;
70078;SDS011;57451;52.496;13.456;2023-06-24T02:01:49;16.17;;;10.93;;
70078;SDS011;57451;52.496;13.456;2023-06-24T02:04:18;15.45;;;10.48;;
70078;SDS011;57451;52.496;13.456;2023-06-24T02:06:48;17.88;;;10.68;;
70078;SDS011;57451;52.496;13.456;2023-06-24T02:09:17;15.48;;;10.93;;
70078;SDS011;57451;52.496;13.456;2023-06-24T02:11:46;17.08;;;11.23;;
70078;SDS011;57451;52.496;13.456;2023-06-24T02:14:15;15.83;;;11.10;;
70078;SDS011;57451;52.496;13.456;2023-06-24T02:16:44;15.88;;;10.98;;
70078;SDS011;57451;52.496;13.456;2023-06-24T02:19:14;15.82;;;10.98;;
70078;SDS011;57451;52.496;13.456;2023-06-24T02:21:45;16.10;;;10.45;;
70078;SDS011;57451;52.496;13.456;2023-06-24T02:24:13;15.93;;;10.27;;
70078;SDS011;57451;52.496;13.456;2023-06-24T02:26:40;17.07;;;10.60;;
70078;SDS011;57451;52.496;13.456;2023-06-24T02:29:08;16.00;;;10.95;;
70078;SDS011;57451;52.496;13.456;2023-06-24T02:31:37;14.55;;;10.45;;
70078;SDS011;57451;52.496;13.456;2023-06-24T02:34:05;16.48;;;10.35;;
70078;SDS011;57451;52.496;13.456;2023-06-24T02:36:34;16.65;;;10.18;;
70078;SDS011;57451;52.496;13.456;2023-06-24T02:39:02;14.30;;;10.13;;
70078;SDS011;57451;52.496;13.456;2023-06-24T02:41:29;16.15;;;9.80;;
70078;SDS011;57451;52.496;13.456;2023-06-24T02:43:56;14.73;;;10.23;;
70078;SDS011;57451;52.496;13.456;2023-06-24T02:46:24;14.57;;;9.60;;
70078;SDS011;57451;52.496;13.456;2023-06-24T02:48:56;15.27;;;9.52;;
70078;SDS011;57451;52.496;13.456;2023-06-24T02:51:25;14.97;;;8.97;;
70078;SDS011;57451;52.496;13.456;2023-06-24T02:53:54;15.45;;;9.55;;
70078;SDS011;57451;52.496;13.456;2023-06-24T02:56:42;13.52;;;9.23;;
70078;SDS011;57451;52.496;13.456;2023-06-24T02:59:18;13.35;;;8.88;;
70078;SDS011;57451;52.496;13.456;2023-06-24T03:01:49;12.95;;;8.90;;
70078;SDS011;57451;52.496;13.456;2023-06-24T03:04:18;13.53;;;8.87;;
70078;SDS011;57451;52.496;13.456;2023-06-24T03:06:46;13.48;;;8.63;;
70078;SDS011;57451;52.496;13.456;2023-06-24T03:09:17;15.18;;;9.20;;
70078;SDS011;57451;52.496;13.456;2023-06-24T03:11:46;13.57;;;9.63;;
70078;SDS011;57451;52.496;13.456;2023-06-24T03:14:21;14.70;;;8.95;;
70078;SDS011;57451;52.496;13.456;2023-06-24T03:16:49;14.97;;;8.97;;
70078;SDS011;57451;52.496;13.456;2023-06-24T03:19:19;15.80;;;9.32;;
70078;SDS011;57451;52.496;13.456;2023-06-24T03:21:51;16.10;;;9.07;;
70078;SDS011;57451;52.496;13.456;2023-06-24T03:24:20;16.33;;;8.93;;
70078;SDS011;57451;52.496;13.456;2023-06-24T03:26:49;17.30;;;9.00;;
70078;SDS011;57451;52.496;13.456;2023-06-24T03:29:26;12.77;;;9.00;;
70078;SDS011;57451;52.496;13.456;2023-06-24T03:32:02;16.00;;;9.10;;
70078;SDS011;57451;52.496;13.456;2023-06-24T03:34:30;14.43;;;9.02;;
70078;SDS011;57451;52.496;13.456;2023-06-24T03:36:58;14.13;;;9.05;;
70078;SDS011;57451;52.496;13.456;2023-06-24T03:39:26;13.52;;;8.45;;
70078;SDS011;57451;52.496;13.456;2023-06-24T03:41:55;13.20;;;8.87;;
70078;SDS011;57451;52.496;13.456;2023-06-24T03:44:23;13.02;;;8.60;;
70078;SDS011;57451;52.496;13.456;2023-06-24T03:46:51;13.43;;;8.60;;
70078;SDS011;57451;52.496;13.456;2023-06-24T03:49:18;13.93;;;8.88;;
70078;SDS011;57451;52.496;13.456;2023-06-24T03:51:45;14.85;;;8.50;;
70078;SDS011;57451;52.496;13.456;2023-06-24T03:54:13;13.77;;;8.83;;
70078;SDS011;57451;52.496;13.456;2023-06-24T03:56:42;13.63;;;8.25;;
70078;SDS011;57451;52.496;13.456;2023-06-24T03:59:10;13.00;;;8.95;;
70078;SDS011;57451;52.496;13.456;2023-06-24T04:01:37;13.82;;;8.20;;
70078;SDS011;57451;52.496;13.456;2023-06-24T04:04:04;12.02;;;8.30;;
70078;SDS011;57451;52.496;13.456;2023-06-24T04:06:32;16.07;;;8.83;;
70078;SDS011;57451;52.496;13.456;2023-06-24T04:09:00;14.75;;;9.10;;
70078;SDS011;57451;52.496;13.456;2023-06-24T04:11:28;14.43;;;8.02;;
70078;SDS011;57451;52.496;13.456;2023-06-24T04:14:00;12.52;;;8.48;;
70078;SDS011;57451;52.496;13.456;2023-06-24T04:16:27;12.90;;;8.48;;
70078;SDS011;57451;52.496;13.456;2023-06-24T04:18:55;13.03;;;8.10;;
70078;SDS011;57451;52.496;13.456;2023-06-24T04:21:22;15.18;;;8.82;;
70078;SDS011;57451;52.496;13.456;2023-06-24T04:23:50;13.95;;;8.18;;
70078;SDS011;57451;52.496;13.456;2023-06-24T04:26:18;15.05;;;8.82;;
70078;SDS011;57451;52.496;13.456;2023-06-24T04:28:45;13.95;;;8.70;;
70078;SDS011;57451;52.496;13.456;2023-06-24T04:31:14;14.53;;;8.70;;
70078;SDS011;57451;52.496;13.456;2023-06-24T04:33:42;12.07;;;8.55;;
70078;SDS011;57451;52.496;13.456;2023-06-24T04:36:10;13.75;;;8.15;;
70078;SDS011;57451;52.496;13.456;2023-06-24T04:38:37;14.80;;;8.68;;
70078;SDS011;57451;52.496;13.456;2023-06-24T04:41:05;16.13;;;8.63;;
70078;SDS011;57451;52.496;13.456;2023-06-24T04:43:32;12.93;;;8.60;;
70078;SDS011;57451;52.496;13.456;2023-06-24T04:46:02;14.07;;;8.75;;
70078;SDS011;57451;52.496;13.456;2023-06-24T04:48:31;12.38;;;8.55;;
70078;SDS011;57451;52.496;13.456;2023-06-24T04:50:58;13.05;;;8.05;;
70078;SDS011;57451;52.496;13.456;2023-06-24T04:53:26;15.15;;;9.35;;
70078;SDS011;57451;52.496;13.456;2023-06-24T04:55:53;14.93;;;8.80;;
70078;SDS011;57451;52.496;13.456;2023-06-24T04:58:20;14.50;;;8.70;;
70078;SDS011;57451;52.496;13.456;2023-06-24T05:00:48;12.23;;;8.48;;
70078;SDS011;57451;52.496;13.456;2023-06-24T05:03:15;13.00;;;8.82;;
70078;SDS011;57451;52.496;13.456;2023-06-24T05:05:44;16.48;;;8.90;;
70078;SDS011;57451;52.496;13.456;2023-06-24T05:08:12;14.40;;;8.53;;
70078;SDS011;57451;52.496;13.456;2023-06-24T05:10:39;12.95;;;8.35;;
70078;SDS011;57451;52.496;13.456;2023-06-24T05:13:07;13.68;;;8.55;;
70078;SDS011;57451;52.496;13.456;2023-06-24T05:15:34;13.18;;;8.60;;
70078;SDS011;57451;52.496;13.456;2023-06-24T05:18:02;12.57;;;7.70;;
70078;SDS011;57451;52.496;13.456;2023-06-24T05:20:30;14.30;;;8.30;;
70078;SDS011;57451;52.496;13.456;2023-06-24T05:22:59;12.98;;;8.38;;
70078;SDS011;57451;52.496;13.456;2023-06-24T05:25:26;14.20;;;8.50;;
70078;SDS011;57451;52.496;13.456;2023-06-24T05:27:53;14.07;;;8.45;;
70078;SDS011;57451;52.496;13.456;2023-06-24T05:30:21;12.90;;;8.55;;
70078;SDS011;57451;52.496;13.456;2023-06-24T05:32:49;13.33;;;8.17;;
70078;SDS011;57451;52.496;13.456;2023-06-24T05:35:16;14.82;;;8.15;;
70078;SDS011;57451;52.496;13.456;2023-06-24T05:37:44;13.13;;;8.02;;
70078;SDS011;57451;52.496;13.456;2023-06-24T05:40:13;14.38;;;7.95;;
70078;SDS011;57451;52.496;13.456;2023-06-24T05:42:40;12.10;;;7.63;;
70078;SDS011;57451;52.496;13.456;2023-06-24T05:45:08;12.87;;;7.43;;
70078;SDS011;57451;52.496;13.456;2023-06-24T05:47:36;11.57;;;7.35;;
70078;SDS011;57451;52.496;13.456;2023-06-24T05:50:05;12.35;;;7.85;;
70078;SDS011;57451;52.496;13.456;2023-06-24T05:52:33;12.95;;;7.57;;
70078;SDS011;57451;52.496;13.456;2023-06-24T05:55:00;12.20;;;7.53;;
70078;SDS011;57451;52.496;13.456;2023-06-24T05:57:29;12.63;;;8.50;;
70078;SDS011;57451;52.496;13.456;2023-06-24T05:59:56;14.60;;;7.43;;
70078;SDS011;57451;52.496;13.456;2023-06-24T06:02:24;12.27;;;8.07;;
70078;SDS011;57451;52.496;13.456;2023-06-24T06:04:51;12.45;;;7.80;;
70078;SDS011;57451;52.496;13.456;2023-06-24T06:07:19;13.77;;;8.05;;
70078;SDS011;57451;52.496;13.456;2023-06-24T06:09:46;11.97;;;7.13;;
70078;SDS011;57451;52.496;13.456;2023-06-24T06:12:14;13.65;;;8.13;;
70078;SDS011;57451;52.496;13.456;2023-06-24T06:14:43;12.43;;;7.50;;
70078;SDS011;57451;52.496;13.456;2023-06-24T06:17:11;12.55;;;7.85;;
70078;SDS011;57451;52.496;13.456;2023-06-24T06:19:40;12.45;;;7.38;;
70078;SDS011;57451;52.496;13.456;2023-06-24T06:22:08;14.10;;;7.80;;
70078;SDS011;57451;52.496;13.456;2023-06-24T06:24:35;11.55;;;7.50;;
70078;SDS011;57451;52.496;13.456;2023-06-24T06:27:03;11.88;;;7.50;;
70078;SDS011;57451;52.496;13.456;2023-06-24T06:29:31;11.65;;;6.70;;
70078;SDS011;57451;52.496;13.456;2023-06-24T06:32:00;12.15;;;6.70;;
70078;SDS011;57451;52.496;13.456;2023-06-24T06:34:28;11.60;;;7.33;;
70078;SDS011;57451;52.496;13.456;2023-06-24T06:36:57;12.32;;;7.50;;
70078;SDS011;57451;52.496;13.456;2023-06-24T06:39:24;11.32;;;6.97;;
70078;SDS011;57451;52.496;13.456;2023-06-24T06:41:52;12.20;;;6.85;;
70078;SDS011;57451;52.496;13.456;2023-06-24T06:44:23;13.45;;;7.30;;
70078;SDS011;57451;52.496;13.456;2023-06-24T06:46:51;13.33;;;7.20;;
70078;SDS011;57451;52.496;13.456;2023-06-24T06:49:19;11.25;;;6.95;;
70078;SDS011;57451;52.496;13.456;2023-06-24T06:51:47;12.15;;;6.35;;
70078;SDS011;57451;52.496;13.456;2023-06-24T06:54:14;12.95;;;7.05;;
70078;SDS011;57451;52.496;13.456;2023-06-24T06:56:42;11.73;;;6.50;;
70078;SDS011;57451;52.496;13.456;2023-06-24T06:59:09;11.13;;;6.63;;
70078;SDS011;57451;52.496;13.456;2023-06-24T07:01:37;13.32;;;6.82;;
70078;SDS011;57451;52.496;13.456;2023-06-24T07:04:05;9.80;;;6.82;;
70078;SDS011;57451;52.496;13.456;2023-06-24T07:06:33;11.25;;;6.97;;
70078;SDS011;57451;52.496;13.456;2023-06-24T07:09:01;10.38;;;6.63;;
70078;SDS011;57451;52.496;13.456;2023-06-24T07:11:28;11.57;;;6.83;;
70078;SDS011;57451;52.496;13.456;2023-06-24T07:13:56;10.93;;;7.07;;
70078;SDS011;57451;52.496;13.456;2023-06-24T07:16:23;12.38;;;7.03;;
70078;SDS011;57451;52.496;13.456;2023-06-24T07:18:51;10.55;;;6.93;;
70078;SDS011;57451;52.496;13.456;2023-06-24T07:21:18;11.57;;;6.25;;
70078;SDS011;57451;52.496;13.456;2023-06-24T07:23:47;10.83;;;6.60;;
70078;SDS011;57451;52.496;13.456;2023-06-24T07:26:14;9.50;;;6.00;;
70078;SDS011;57451;52.496;13.456;2023-06-24T07:28:41;9.70;;;6.38;;
70078;SDS011;57451;52.496;13.456;2023-06-24T07:31:14;9.85;;;5.60;;
70078;SDS011;57451;52.496;13.456;2023-06-24T07:33:41;11.20;;;6.00;;
70078;SDS011;57451;52.496;13.456;2023-06-24T07:36:08;8.43;;;5.00;;
70078;SDS011;57451;52.496;13.456;2023-06-24T07:38:37;9.70;;;5.50;;
70078;SDS011;57451;52.496;13.456;2023-06-24T07:41:06;9.38;;;5.65;;
70078;SDS011;57451;52.496;13.456;2023-06-24T07:43:33;9.07;;;5.57;;
70078;SDS011;57451;52.496;13.456;2023-06-24T07:46:01;8.43;;;5.45;;
70078;SDS011;57451;52.496;13.456;2023-06-24T07:48:29;8.17;;;5.23;;
70078;SDS011;57451;52.496;13.456;2023-06-24T07:50:57;8.77;;;5.00;;
70078;SDS011;57451;52.496;13.456;2023-06-24T07:53:25;7.85;;;5.03;;
70078;SDS011;57451;52.496;13.456;2023-06-24T07:55:52;10.18;;;5.22;;
70078;SDS011;57451;52.496;13.456;2023-06-24T07:58:21;8.57;;;5.10;;
70078;SDS011;57451;52.496;13.456;2023-06-24T08:00:48;9.90;;;4.90;;
70078;SDS011;57451;52.496;13.456;2023-06-24T08:03:15;7.18;;;4.93;;
70078;SDS011;57451;52.496;13.456;2023-06-24T08:05:43;7.88;;;4.90;;
70078;SDS011;57451;52.496;13.456;2023-06-24T08:08:11;9.93;;;4.97;;
70078;SDS011;57451;52.496;13.456;2023-06-24T08:10:38;7.72;;;4.90;;
70078;SDS011;57451;52.496;13.456;2023-06-24T08:13:05;8.37;;;5.37;;
70078;SDS011;57451;52.496;13.456;2023-06-24T08:15:34;7.93;;;5.28;;
70078;SDS011;57451;52.496;13.456;2023-06-24T08:18:04;7.18;;;4.53;;
70078;SDS011;57451;52.496;13.456;2023-06-24T08:20:32;8.73;;;5.20;;
70078;SDS011;57451;52.496;13.456;2023-06-24T08:22:59;7.72;;;5.07;;
70078;SDS011;57451;52.496;13.456;2023-06-24T08:25:26;8.90;;;5.47;;
70078;SDS011;57451;52.496;13.456;2023-06-24T08:27:54;8.68;;;5.10;;
70078;SDS011;57451;52.496;13.456;2023-06-24T08:30:21;10.57;;;5.18;;
70078;SDS011;57451;52.496;13.456;2023-06-24T08:32:50;9.82;;;5.25;;
70078;SDS011;57451;52.496;13.456;2023-06-24T08:35:17;8.20;;;5.07;;
70078;SDS011;57451;52.496;13.456;2023-06-24T08:37:45;7.40;;;4.80;;
70078;SDS011;57451;52.496;13.456;2023-06-24T08:40:12;8.05;;;4.82;;
70078;SDS011;57451;52.496;13.456;2023-06-24T08:42:39;8.88;;;5.13;;
70078;SDS011;57451;52.496;13.456;2023-06-24T08:45:07;7.25;;;4.82;;
70078;SDS011;57451;52.496;13.456;2023-06-24T08:47:35;7.72;;;4.93;;
70078;SDS011;57451;52.496;13.456;2023-06-24T08:50:05;8.57;;;4.93;;
70078;SDS011;57451;52.496;13.456;2023-06-24T08:52:38;8.07;;;5.13;;
70078;SDS011;57451;52.496;13.456;2023-06-24T08:55:11;10.50;;;5.57;;
70078;SDS011;57451;52.496;13.456;2023-06-24T08:57:43;7.85;;;4.80;;
70078;SDS011;57451;52.496;13.456;2023-06-24T09:00:10;8.60;;;5.50;;
70078;SDS011;57451;52.496;13.456;2023-06-24T09:02:38;7.40;;;4.87;;
70078;SDS011;57451;52.496;13.456;2023-06-24T09:05:07;9.50;;;5.38;;
70078;SDS011;57451;52.496;13.456;2023-06-24T09:07:36;8.20;;;5.25;;
70078;SDS011;57451;52.496;13.456;2023-06-24T09:10:04;8.05;;;5.00;;
70078;SDS011;57451;52.496;13.456;2023-06-24T09:12:32;9.50;;;4.55;;
70078;SDS011;57451;52.496;13.456;2023-06-24T09:14:59;9.00;;;5.00;;
70078;SDS011;57451;52.496;13.456;2023-06-24T09:17:27;7.70;;;5.00;;
70078;SDS011;57451;52.496;13.456;2023-06-24T09:20:02;8.55;;;5.13;;
70078;SDS011;57451;52.496;13.456;2023-06-24T09:22:32;9.02;;;4.90;;
70078;SDS011;57451;52.496;13.456;2023-06-24T09:25:00;7.53;;;4.28;;
70078;SDS011;57451;52.496;13.456;2023-06-24T09:27:31;7.30;;;4.63;;
70078;SDS011;57451;52.496;13.456;2023-06-24T09:30:00;7.70;;;4.55;;
70078;SDS011;57451;52.496;13.456;2023-06-24T09:32:29;7.45;;;4.57;;
70078;SDS011;57451;52.496;13.456;2023-06-24T09:34:57;7.30;;;4.32;;
70078;SDS011;57451;52.496;13.456;2023-06-24T09:37:33;7.43;;;4.50;;
70078;SDS011;57451;52.496;13.456;2023-06-24T09:40:01;6.33;;;4.57;;
70078;SDS011;57451;52.496;13.456;2023-06-24T09:42:32;6.50;;;4.22;;
70078;SDS011;57451;52.496;13.456;2023-06-24T09:44:59;7.25;;;4.40;;
70078;SDS011;57451;52.496;13.456;2023-06-24T09:47:31;6.97;;;4.22;;
70078;SDS011;57451;52.496;13.456;2023-06-24T09:49:59;6.22;;;3.80;;
70078;SDS011;57451;52.496;13.456;2023-06-24T09:52:29;5.97;;;4.27;;
70078;SDS011;57451;52.496;13.456;2023-06-24T09:55:02;6.80;;;4.03;;
70078;SDS011;57451;52.496;13.456;2023-06-24T09:57:32;8.27;;;4.00;;
70078;SDS011;57451;52.496;13.456;2023-06-24T10:00:00;7.20;;;4.10;;
70078;SDS011;57451;52.496;13.456;2023-06-24T10:02:31;6.97;;;4.55;;
70078;SDS011;57451;52.496;13.456;2023-06-24T10:05:00;7.73;;;4.30;;
70078;SDS011;57451;52.496;13.456;2023-06-24T10:07:28;7.05;;;3.95;;
70078;SDS011;57451;52.496;13.456;2023-06-24T10:09:56;7.72;;;4.18;;
70078;SDS011;57451;52.496;13.456;2023-06-24T10:12:25;7.85;;;4.20;;
70078;SDS011;57451;52.496;13.456;2023-06-24T10:14:54;5.80;;;3.75;;
70078;SDS011;57451;52.496;13.456;2023-06-24T10:17:22;5.77;;;3.73;;
70078;SDS011;57451;52.496;13.456;2023-06-24T10:19:51;6.00;;;3.58;;
70078;SDS011;57451;52.496;13.456;2023-06-24T10:22:21;6.45;;;3.88;;
70078;SDS011;57451;52.496;13.456;2023-06-24T10:24:51;6.35;;;3.78;;
70078;SDS011;57451;52.496;13.456;2023-06-24T10:27:19;6.15;;;3.60;;
70078;SDS011;57451;52.496;13.456;2023-06-24T10:29:50;8.40;;;3.73;;
70078;SDS011;57451;52.496;13.456;2023-06-24T10:32:19;7.13;;;4.10;;
70078;SDS011;57451;52.496;13.456;2023-06-24T10:34:54;7.78;;;4.05;;
70078;SDS011;57451;52.496;13.456;2023-06-24T10:37:22;6.80;;;4.13;;
70078;SDS011;57451;52.496;13.456;2023-06-24T10:39:52;7.35;;;3.83;;
70078;SDS011;57451;52.496;13.456;2023-06-24T10:42:27;6.67;;;3.80;;
70078;SDS011;57451;52.496;13.456;2023-06-24T10:45:02;7.10;;;3.92;;
70078;SDS011;57451;52.496;13.456;2023-06-24T10:47:48;7.47;;;3.95;;
70078;SDS011;57451;52.496;13.456;2023-06-24T10:50:18;7.38;;;4.07;;
70078;SDS011;57451;52.496;13.456;2023-06-24T10:52:48;5.78;;;3.72;;
70078;SDS011;57451;52.496;13.456;2023-06-24T10:55:21;5.47;;;3.50;;
70078;SDS011;57451;52.496;13.456;2023-06-24T10:57:50;6.32;;;3.72;;
70078;SDS011;57451;52.496;13.456;2023-06-24T11:00:20;6.35;;;3.78;;
70078;SDS011;57451;52.496;13.456;2023-06-24T11:02:48;7.40;;;4.00;;
70078;SDS011;57451;52.496;13.456;2023-06-24T11:05:16;5.20;;;3.67;;
70078;SDS011;57451;52.496;13.456;2023-06-24T11:07:43;6.78;;;4.10;;
70078;SDS011;57451;52.496;13.456;2023-06-24T11:10:11;5.95;;;3.90;;
70078;SDS011;57451;52.496;13.456;2023-06-24T11:12:41;5.82;;;3.58;;
70078;SDS011;57451;52.496;13.456;2023-06-24T11:15:10;7.68;;;3.78;;
70078;SDS011;57451;52.496;13.456;2023-06-24T11:17:40;7.15;;;4.22;;
70078;SDS011;57451;52.496;13.456;2023-06-24T11:20:09;7.37;;;3.93;;
70078;SDS011;57451;52.496;13.456;2023-06-24T11:22:37;7.00;;;3.80;;
70078;SDS011;57451;52.496;13.456;2023-06-24T11:25:12;6.10;;;3.78;;
70078;SDS011;57451;52.496;13.456;2023-06-24T11:27:41;7.10;;;3.95;;
70078;SDS011;57451;52.496;13.456;2023-06-24T11:30:09;6.88;;;3.72;;
70078;SDS011;57451;52.496;13.456;2023-06-24T11:32:40;6.70;;;3.87;;
70078;SDS011;57451;52.496;13.456;2023-06-24T11:35:09;7.13;;;4.43;;
70078;SDS011;57451;52.496;13.456;2023-06-24T11:37:40;6.35;;;4.07;;
70078;SDS011;57451;52.496;13.456;2023-06-24T11:40:10;7.90;;;4.25;;
70078;SDS011;57451;52.496;13.456;2023-06-24T11:42:39;8.35;;;4.13;;
70078;SDS011;57451;52.496;13.456;2023-06-24T11:45:08;7.17;;;3.87;;
70078;SDS011;57451;52.496;13.456;2023-06-24T11:47:43;7.05;;;4.13;;
70078;SDS011;57451;52.496;13.456;2023-06-24T11:50:10;7.70;;;4.22;;
70078;SDS011;57451;52.496;13.456;2023-06-24T11:52:38;6.70;;;4.07;;
70078;SDS011;57451;52.496;13.456;2023-06-24T11:55:16;6.72;;;4.10;;
70078;SDS011;57451;52.496;13.456;2023-06-24T11:57:50;6.53;;;4.00;;
70078;SDS011;57451;52.496;13.456;2023-06-24T12:00:20;8.30;;;4.57;;
70078;SDS011;57451;52.496;13.456;2023-06-24T12:02:55;7.38;;;3.83;;
70078;SDS011;57451;52.496;13.456;2023-06-24T12:05:25;6.70;;;4.05;;
70078;SDS011;57451;52.496;13.456;2023-06-24T12:07:56;8.35;;;4.57;;
70078;SDS011;57451;52.496;13.456;2023-06-24T12:10:25;7.60;;;4.57;;
70078;SDS011;57451;52.496;13.456;2023-06-24T12:12:53;8.30;;;4.57;;
70078;SDS011;57451;52.496;13.456;2023-06-24T12:15:21;9.05;;;4.60;;
70078;SDS011;57451;52.496;13.456;2023-06-24T12:17:48;7.15;;;4.40;;
70078;SDS011;57451;52.496;13.456;2023-06-24T12:20:17;6.97;;;4.30;;
70078;SDS011;57451;52.496;13.456;2023-06-24T12:22:46;6.40;;;3.80;;
70078;SDS011;57451;52.496;13.456;2023-06-24T12:25:16;7.30;;;4.20;;
70078;SDS011;57451;52.496;13.456;2023-06-24T12:27:47;8.45;;;4.75;;
70078;SDS011;57451;52.496;13.456;2023-06-24T12:30:14;8.48;;;4.75;;
70078;SDS011;57451;52.496;13.456;2023-06-24T12:32:43;9.25;;;5.30;;
70078;SDS011;57451;52.496;13.456;2023-06-24T12:35:12;6.63;;;4.37;;
70078;SDS011;57451;52.496;13.456;2023-06-24T12:37:41;7.38;;;4.18;;
70078;SDS011;57451;52.496;13.456;2023-06-24T12:40:08;6.65;;;4.38;;
70078;SDS011;57451;52.496;13.456;2023-06-24T12:42:36;6.03;;;3.88;;
70078;SDS011;57451;52.496;13.456;2023-06-24T12:45:05;5.43;;;3.70;;
70078;SDS011;57451;52.496;13.456;2023-06-24T12:47:33;5.73;;;3.93;;
70078;SDS011;57451;52.496;13.456;2023-06-24T12:50:01;6.43;;;4.47;;
70078;SDS011;57451;52.496;13.456;2023-06-24T12:52:35;6.93;;;4.40;;
70078;SDS011;57451;52.496;13.456;2023-06-24T12:55:06;7.93;;;4.40;;
70078;SDS011;57451;52.496;13.456;2023-06-24T12:57:35;8.68;;;4.40;;
70078;SDS011;57451;52.496;13.456;2023-06-24T13:00:03;7.77;;;4.67;;
70078;SDS011;57451;52.496;13.456;2023-06-24T13:02:35;7.45;;;4.80;;
70078;SDS011;57451;52.496;13.456;2023-06-24T13:05:10;6.65;;;4.30;;
70078;SDS011;57451;52.496;13.456;2023-06-24T13:07:38;6.25;;;3.72;;
70078;SDS011;57451;52.496;13.456;2023-06-24T13:10:07;7.93;;;3.97;;
70078;SDS011;57451;52.496;13.456;2023-06-24T13:12:36;7.80;;;3.90;;
70078;SDS011;57451;52.496;13.456;2023-06-24T13:15:05;7.60;;;4.38;;
70078;SDS011;57451;52.496;13.456;2023-06-24T13:17:33;8.15;;;3.88;;
70078;SDS011;57451;52.496;13.456;2023-06-24T13:20:00;6.97;;;4.32;;
70078;SDS011;57451;52.496;13.456;2023-06-24T13:22:30;6.30;;;3.63;;
70078;SDS011;57451;52.496;13.456;2023-06-24T13:24:58;6.50;;;4.30;;
70078;SDS011;57451;52.496;13.456;2023-06-24T13:27:27;6.68;;;4.20;;
70078;SDS011;57451;52.496;13.456;2023-06-24T13:29:54;6.65;;;4.00;;
70078;SDS011;57451;52.496;13.456;2023-06-24T13:32:23;7.35;;;4.80;;
70078;SDS011;57451;52.496;13.456;2023-06-24T13:34:51;7.38;;;4.60;;
70078;SDS011;57451;52.496;13.456;2023-06-24T13:37:19;8.20;;;4.60;;
70078;SDS011;57451;52.496;13.456;2023-06-24T13:39:46;7.35;;;4.57;;
70078;SDS011;57451;52.496;13.456;2023-06-24T13:42:14;6.50;;;4.00;;
70078;SDS011;57451;52.496;13.456;2023-06-24T13:44:43;7.88;;;4.00;;
70078;SDS011;57451;52.496;13.456;2023-06-24T13:47:11;7.57;;;5.05;;
70078;SDS011;57451;52.496;13.456;2023-06-24T13:49:39;8.73;;;5.60;;
70078;SDS011;57451;52.496;13.456;2023-06-24T13:52:07;21.08;;;10.38;;
70078;SDS011;57451;52.496;13.456;2023-06-24T13:54:34;14.65;;;9.48;;
70078;SDS011;57451;52.496;13.456;2023-06-24T13:57:02;10.77;;;6.38;;
70078;SDS011;57451;52.496;13.456;2023-06-24T13:59:30;8.93;;;4.28;;
70078;SDS011;57451;52.496;13.456;2023-06-24T14:01:59;6.55;;;4.60;;
70078;SDS011;57451;52.496;13.456;2023-06-24T14:04:26;6.65;;;4.03;;
70078;SDS011;57451;52.496;13.456;2023-06-24T14:06:54;7.32;;;4.82;;
70078;SDS011;57451;52.496;13.456;2023-06-24T14:09:22;8.68;;;5.07;;
70078;SDS011;57451;52.496;13.456;2023-06-24T14:11:49;9.88;;;5.47;;
70078;SDS011;57451;52.496;13.456;2023-06-24T14:14:18;7.10;;;4.77;;
70078;SDS011;57451;52.496;13.456;2023-06-24T14:16:45;7.15;;;4.20;;
70078;SDS011;57451;52.496;13.456;2023-06-24T14:19:14;8.13;;;4.97;;
70078;SDS011;57451;52.496;13.456;2023-06-24T14:21:42;7.40;;;4.70;;
70078;SDS011;57451;52.496;13.456;2023-06-24T14:24:11;6.95;;;4.05;;
70078;SDS011;57451;52.496;13.456;2023-06-24T14:26:43;7.03;;;4.57;;
70078;SDS011;57451;52.496;13.456;2023-06-24T14:29:10;7.43;;;4.80;;
70078;SDS011;57451;52.496;13.456;2023-06-24T14:31:38;8.95;;;5.07;;
70078;SDS011;57451;52.496;13.456;2023-06-24T14:34:06;8.95;;;4.55;;
70078;SDS011;57451;52.496;13.456;2023-06-24T14:36:35;7.05;;;3.97;;